Time;durP1;ratioP1;P1;durP2;ratioP2;P2;SDS_P1;SDS_P2;PMS_P1;PMS_P2;Temp;Humidity;BMP_temperature;BMP_pressure;BME280_temperature;BME280_humidity;BME280_pressure;Samples;Min_cycle;Max_cycle;Signal;HPM_P1;HPM_P2
2022/10/01 00:06:41;;;;;;;0.50;0.50;;;;;;;16.57;71.59;100414.91;18430843;32;20125;-56
2022/10/01 00:16:44;;;;;;;0.22;0.22;;;;;;;16.24;72.80;100407.00;18430782;32;20097;-56
2022/10/01 00:26:48;;;;;;;1.33;1.20;;;;;;;16.50;71.78;100395.78;18430263;32;20132;-56
2022/10/01 00:36:52;;;;;;;0.85;0.75;;;;;;;15.18;77.59;100392.78;18430617;32;20105;-56
2022/10/01 00:46:58;;;;;;;0.30;0.30;;;;;;;16.12;73.84;100397.63;18430182;32;20133;-56
2022/10/01 00:57:02;;;;;;;0.30;0.30;;;;;;;16.36;72.75;100382.97;18429204;32;20104;-56
2022/10/01 01:07:07;;;;;;;0.30;0.30;;;;;;;16.38;72.44;100398.72;18427787;32;20395;-56
2022/10/01 01:17:13;;;;;;;0.20;0.20;;;;;;;15.86;74.61;100343.84;18427350;32;20149;-56
2022/10/01 01:27:26;;;;;;;0.40;0.40;;;;;;;16.40;72.58;100396.06;18426574;32;20112;-56
2022/10/01 01:37:34;;;;;;;0.40;0.40;;;;;;;16.52;72.33;100463.38;18430395;32;20130;-56
2022/10/01 01:47:40;;;;;;;0.40;0.37;;;;;;;14.25;84.02;100351.63;18435345;32;20117;-56
2022/10/01 01:57:46;;;;;;;0.30;0.30;;;;;;;15.48;78.53;100362.28;18434879;32;20108;-56
2022/10/01 02:08:00;;;;;;;0.30;0.30;;;;;;;16.30;74.72;100375.22;18434890;32;20111;-56
2022/10/01 02:18:12;;;;;;;0.30;0.30;;;;;;;15.83;76.45;100378.12;18434718;32;20089;-56
2022/10/01 02:28:17;;;;;;;0.13;0.13;;;;;;;16.38;74.37;100372.37;18435790;32;20092;-56
2022/10/01 02:38:23;;;;;;;0.47;0.47;;;;;;;16.49;73.68;100377.38;18435323;32;20103;-56
2022/10/01 02:48:27;;;;;;;0.20;0.20;;;;;;;16.69;72.77;100376.81;18433011;32;20092;-56
2022/10/01 02:58:32;;;;;;;0.30;0.30;;;;;;;16.73;72.21;100380.22;18433223;32;20119;-56
2022/10/01 03:08:35;;;;;;;0.30;0.30;;;;;;;16.70;72.03;100362.75;18433268;32;20121;-56
2022/10/01 03:18:40;;;;;;;0.30;0.30;;;;;;;16.64;71.97;100373.44;18433938;32;20092;-56
2022/10/01 03:28:43;;;;;;;1.30;1.20;;;;;;;16.66;71.83;100358.44;18432543;32;20437;-56
2022/10/01 03:38:47;;;;;;;0.30;0.30;;;;;;;16.67;71.69;100377.78;18433149;32;20124;-56
2022/10/01 03:48:51;;;;;;;0.30;0.30;;;;;;;16.64;71.80;100378.72;18431551;32;20474;-56
2022/10/01 03:58:55;;;;;;;0.35;0.35;;;;;;;16.56;72.14;100399.16;18430927;32;20101;-56
2022/10/01 04:08:58;;;;;;;0.20;0.20;;;;;;;16.67;71.91;100414.66;18432243;32;20131;-56
2022/10/01 04:19:04;;;;;;;0.30;0.30;;;;;;;16.70;71.79;100386.47;18416333;32;20217;-56
2022/10/01 04:29:07;;;;;;;0.25;0.25;;;;;;;16.62;71.95;100386.66;18430313;32;20170;-56
2022/10/01 04:39:11;;;;;;;0.62;0.50;;;;;;;16.65;71.68;100375.16;18429540;32;20195;-56
2022/10/01 04:49:14;;;;;;;0.52;0.45;;;;;;;16.56;71.97;100367.53;18430299;32;20097;-56
2022/10/01 04:59:19;;;;;;;0.30;0.30;;;;;;;16.56;72.04;100370.16;18428291;32;20105;-56
2022/10/01 05:09:22;;;;;;;1.33;0.55;;;;;;;16.53;72.17;100378.16;18429335;32;20093;-56
2022/10/01 05:19:28;;;;;;;0.30;0.30;;;;;;;16.52;72.14;100373.78;18436483;32;20105;-56
2022/10/01 05:29:32;;;;;;;0.80;0.77;;;;;;;16.53;72.06;100383.44;18437259;32;20097;-56
2022/10/01 05:39:36;;;;;;;0.30;0.30;;;;;;;16.45;72.60;100379.22;18435981;32;20116;-56
2022/10/01 05:49:43;;;;;;;0.30;0.30;;;;;;;16.62;72.16;100409.53;18435690;32;20364;-56
2022/10/01 05:59:48;;;;;;;0.40;0.40;;;;;;;16.58;72.62;100415.78;18436101;32;20103;-56
2022/10/01 06:09:51;;;;;;;0.40;0.40;;;;;;;16.66;72.74;100405.03;18435031;32;20092;-56
2022/10/01 06:19:55;;;;;;;0.30;0.30;;;;;;;16.76;72.72;100402.09;18435484;32;20489;-56
2022/10/01 06:29:58;;;;;;;0.30;0.30;;;;;;;16.77;72.94;100372.19;18434349;32;20101;-56
2022/10/01 06:40:03;;;;;;;0.22;0.22;;;;;;;16.84;73.13;100358.84;18433768;32;20088;-56
2022/10/01 06:50:08;;;;;;;0.30;0.30;;;;;;;16.93;73.08;100332.19;18433798;32;20119;-57
2022/10/01 07:00:13;;;;;;;1.30;1.20;;;;;;;17.11;72.79;100348.41;18433250;32;20408;-56
2022/10/01 07:10:19;;;;;;;0.20;0.20;;;;;;;17.19;72.70;100363.09;18433351;32;20108;-56
2022/10/01 07:20:24;;;;;;;0.40;0.40;;;;;;;17.34;72.65;100372.31;18433797;32;20093;-56
2022/10/01 07:30:28;;;;;;;0.68;0.40;;;;;;;17.40;72.63;100384.44;18432481;32;20119;-56
2022/10/01 07:40:32;;;;;;;0.30;0.30;;;;;;;17.38;72.66;100366.94;18431500;32;20099;-57
2022/10/01 07:50:35;;;;;;;0.25;0.25;;;;;;;17.50;72.48;100352.47;18431962;32;20139;-58
2022/10/01 08:00:42;;;;;;;0.22;0.22;;;;;;;17.58;72.65;100332.88;18431532;32;20107;-56
2022/10/01 08:10:45;;;;;;;0.20;0.20;;;;;;;17.66;72.76;100339.69;18431252;32;20179;-56
2022/10/01 08:20:51;;;;;;;0.20;0.20;;;;;;;17.87;72.58;100351.28;18431813;32;20154;-56
2022/10/01 08:30:54;;;;;;;0.55;0.35;;;;;;;17.97;72.72;100336.84;18430386;32;20096;-58
2022/10/01 08:41:01;;;;;;;0.10;0.10;;;;;;;18.14;72.58;100331.03;18429557;32;20441;-56
2022/10/01 08:51:07;;;;;;;0.17;0.15;;;;;;;18.36;72.17;100340.84;18435799;32;20096;-56
2022/10/01 09:01:14;;;;;;;0.20;0.20;;;;;;;18.07;73.16;100300.47;18436859;32;20089;-56
2022/10/01 09:11:28;;;;;;;0.30;0.30;;;;;;;18.37;72.62;100287.06;18436665;32;20112;-56
2022/10/01 09:21:46;;;;;;;0.35;0.28;;;;;;;18.71;72.22;100293.75;18436616;32;20122;-56
2022/10/01 09:31:51;;;;;;;0.55;0.52;;;;;;;18.91;72.10;100302.69;18436263;32;20104;-56
2022/10/01 09:41:55;;;;;;;0.30;0.30;;;;;;;18.99;72.12;100281.22;18435961;32;20093;-56
2022/10/01 09:52:01;;;;;;;0.47;0.30;;;;;;;19.20;71.89;100262.81;18435414;32;20130;-56
2022/10/01 10:02:16;;;;;;;0.20;0.20;;;;;;;19.51;72.02;100251.81;18434700;32;20085;-56
2022/10/01 10:12:29;;;;;;;1.55;0.30;;;;;;;19.77;71.21;100255.16;18434937;32;20093;-56
2022/10/01 10:22:33;;;;;;;0.30;0.30;;;;;;;19.74;70.31;100257.94;18434670;32;20113;-56
2022/10/01 10:32:37;;;;;;;0.50;0.30;;;;;;;19.72;71.17;100243.03;18435359;32;20111;-57
2022/10/01 10:42:47;;;;;;;0.20;0.15;;;;;;;19.81;70.82;100211.69;18433995;32;20125;-56
2022/10/01 10:52:50;;;;;;;0.20;0.20;;;;;;;20.09;70.78;100204.38;18419319;32;20166;-57
2022/10/01 11:02:57;;;;;;;0.15;0.15;;;;;;;20.27;70.66;100192.06;18433369;32;20104;-56
2022/10/01 11:13:11;;;;;;;0.10;0.10;;;;;;;20.65;70.71;100172.63;18433108;32;20107;-56
2022/10/01 11:23:35;;;;;;;0.13;0.03;;;;;;;20.73;71.53;100146.59;18433887;32;20182;-56
2022/10/01 11:33:45;;;;;;;0.90;0.20;;;;;;;21.46;69.00;100127.06;18432823;32;20115;-56
2022/10/01 11:43:53;;;;;;;0.25;0.25;;;;;;;21.63;66.55;100118.19;18432338;32;20334;-56
2022/10/01 11:53:59;;;;;;;1.65;1.20;;;;;;;21.30;67.75;100115.50;18431949;32;20093;-56
2022/10/01 12:04:16;;;;;;;0.28;0.28;;;;;;;21.59;66.99;100095.41;18431727;32;20396;-56
2022/10/01 12:14:21;;;;;;;0.40;0.40;;;;;;;21.79;66.92;100071.37;18431395;32;20089;-56
2022/10/01 12:24:29;;;;;;;0.70;0.10;;;;;;;21.62;66.97;100074.00;18430518;32;20089;-56
2022/10/01 12:34:39;;;;;;;0.05;0.05;;;;;;;21.89;67.47;100062.84;18430491;32;20452;-56
2022/10/01 12:44:55;;;;;;;0.10;0.10;;;;;;;21.99;67.43;100049.88;18429728;32;20124;-56
2022/10/01 12:55:33;;;;;;;0.10;0.10;;;;;;;21.98;66.39;100037.53;18414312;32;21980;-56
2022/10/01 13:05:45;;;;;;;0.20;0.20;;;;;;;21.85;66.64;100033.87;18164817;32;20141;-56
2022/10/01 13:15:52;;;;;;;0.30;0.30;;;;;;;21.81;65.33;100049.12;18152554;32;20125;-56
2022/10/01 13:26:04;;;;;;;0.10;0.10;;;;;;;21.69;66.51;100028.53;18164727;32;20118;-56
2022/10/01 13:36:08;;;;;;;0.28;0.28;;;;;;;21.70;65.78;100006.34;18244544;32;20145;-56
2022/10/01 13:46:13;;;;;;;0.20;0.20;;;;;;;21.66;65.53;99989.69;18435691;32;20424;-56
2022/10/01 13:56:28;;;;;;;0.55;0.50;;;;;;;21.57;65.23;99983.06;18435053;32;20122;-56
2022/10/01 14:06:45;;;;;;;0.13;0.13;;;;;;;21.48;65.29;99981.78;18435304;32;20081;-56
2022/10/01 14:16:49;;;;;;;0.25;0.25;;;;;;;21.52;65.86;99961.25;18434557;32;20081;-56
2022/10/01 14:26:56;;;;;;;0.10;0.10;;;;;;;21.62;65.00;99964.22;18420403;32;20139;-56
2022/10/01 14:36:59;;;;;;;0.17;0.10;;;;;;;20.90;68.18;99965.41;18434017;32;20107;-56
2022/10/01 14:47:13;;;;;;;0.55;0.55;;;;;;;21.22;67.42;99956.66;18434829;32;20119;-56
2022/10/01 14:57:21;;;;;;;1.00;0.45;;;;;;;21.05;67.38;99938.97;18433253;32;20076;-56
2022/10/01 15:07:32;;;;;;;0.28;0.28;;;;;;;20.97;67.32;99946.50;18433573;32;20369;-56
2022/10/01 15:17:36;;;;;;;1.20;0.30;;;;;;;20.88;67.82;99945.19;18420006;32;20103;-56
2022/10/01 15:27:44;;;;;;;0.20;0.20;;;;;;;20.82;65.39;99962.28;18433211;32;20132;-56
2022/10/01 15:37:49;;;;;;;0.25;0.20;;;;;;;20.25;65.79;99968.66;18432363;32;20124;-56
2022/10/01 15:47:56;;;;;;;0.10;0.10;;;;;;;20.21;65.75;99972.41;18415516;32;76659;-56
2022/10/01 15:58:06;;;;;;;0.10;0.10;;;;;;;19.85;65.62;99973.22;18431096;32;20097;-56
2022/10/01 16:08:17;;;;;;;0.10;0.10;;;;;;;19.80;65.60;99978.75;18432831;32;20414;-56
2022/10/01 16:18:21;;;;;;;0.23;0.23;;;;;;;19.58;65.05;99981.53;18432178;32;20085;-56
2022/10/01 16:28:28;;;;;;;0.25;0.25;;;;;;;19.30;64.53;99978.34;18430425;32;20111;-56
2022/10/01 16:38:32;;;;;;;0.20;0.20;;;;;;;19.06;65.44;99989.12;18430070;32;20085;-56
2022/10/01 16:48:36;;;;;;;0.10;0.10;;;;;;;19.09;64.69;99982.84;18429427;32;20162;-56
2022/10/01 16:58:40;;;;;;;0.10;0.10;;;;;;;18.86;66.25;99987.31;18428906;32;20103;-56
2022/10/01 17:08:45;;;;;;;0.13;0.13;;;;;;;18.48;68.39;99988.03;18432546;32;20094;-56
2022/10/01 17:18:48;;;;;;;1.12;0.40;;;;;;;18.53;67.65;100009.81;18437361;32;20089;-56
2022/10/01 17:28:53;;;;;;;0.20;0.20;;;;;;;18.44;67.87;100003.16;18421752;32;20101;-56
2022/10/01 17:38:56;;;;;;;0.77;0.45;;;;;;;18.30;68.26;100001.06;18435587;32;20127;-56
2022/10/01 17:49:00;;;;;;;0.15;0.15;;;;;;;18.19;68.07;100008.59;18436510;32;20088;-56
2022/10/01 17:59:04;;;;;;;1.25;0.73;;;;;;;17.98;68.23;100021.69;18434925;32;20178;-56
2022/10/01 18:09:08;;;;;;;0.20;0.20;;;;;;;17.78;67.44;100019.81;18434745;32;20491;-56
2022/10/01 18:19:11;;;;;;;0.75;0.75;;;;;;;17.38;65.07;100013.41;18434204;32;20099;-56
2022/10/01 18:29:37;;;;;;;0.20;0.20;;;;;;;17.41;66.93;100051.09;18434390;32;20088;-56
2022/10/01 18:39:44;;;;;;;0.20;0.20;;;;;;;17.09;68.18;100032.00;18434381;32;20381;-56
2022/10/01 18:50:17;;;;;;;0.20;0.20;;;;;;;17.18;67.36;100049.28;18420522;32;20097;-56
2022/10/01 19:00:22;;;;;;;0.20;0.20;;;;;;;17.01;68.08;100055.13;18419141;32;20112;-56
2022/10/01 19:10:32;;;;;;;0.30;0.30;;;;;;;16.70;68.41;100061.41;18434584;32;20447;-56
2022/10/01 19:20:47;;;;;;;0.40;0.40;;;;;;;16.83;67.85;100064.50;18433205;32;20120;-55
2022/10/01 19:31:00;;;;;;;0.30;0.30;;;;;;;16.53;68.48;100061.97;18432041;32;20100;-55
2022/10/01 19:41:09;;;;;;;0.30;0.30;;;;;;;16.60;68.85;100061.72;18432762;32;20145;-56
2022/10/01 19:51:16;;;;;;;0.20;0.20;;;;;;;16.60;68.54;100058.25;18417784;32;20093;-55
2022/10/01 20:01:20;;;;;;;0.37;0.37;;;;;;;16.55;68.81;100070.69;18417272;32;20097;-56
2022/10/01 20:11:29;;;;;;;0.35;0.35;;;;;;;16.80;67.65;100086.56;18432452;32;20097;-55
2022/10/01 20:21:41;;;;;;;0.30;0.30;;;;;;;16.61;67.76;100092.41;18430990;32;20170;-56
2022/10/01 20:31:50;;;;;;;0.30;0.30;;;;;;;16.56;66.66;100085.59;18430422;32;20152;-55
2022/10/01 20:41:55;;;;;;;0.22;0.22;;;;;;;16.84;64.63;100088.19;18439410;32;20098;-56
2022/10/01 20:52:04;;;;;;;0.28;0.28;;;;;;;16.89;62.19;100101.22;18450267;32;20369;-56
2022/10/01 21:02:23;;;;;;;0.25;0.25;;;;;;;16.90;61.01;100126.66;18450039;32;20096;-55
2022/10/01 21:12:34;;;;;;;0.20;0.20;;;;;;;17.09;60.31;100142.75;18449475;32;20207;-56
2022/10/01 21:22:46;;;;;;;0.20;0.20;;;;;;;17.23;59.92;100155.47;18449803;32;20146;-56
2022/10/01 21:33:03;;;;;;;0.28;0.28;;;;;;;17.04;61.49;100169.28;18448004;32;20088;-56
2022/10/01 21:43:14;;;;;;;0.20;0.20;;;;;;;16.72;61.97;100179.06;18448691;32;20139;-56
2022/10/01 21:53:49;;;;;;;0.22;0.22;;;;;;;16.37;62.89;100189.78;18441904;32;20351;-56
2022/10/01 22:03:57;;;;;;;0.25;0.25;;;;;;;16.04;63.97;100186.34;18433369;32;20103;-55
2022/10/01 22:14:04;;;;;;;0.20;0.20;;;;;;;15.89;64.47;100191.09;18435169;32;20069;-56
2022/10/01 22:24:09;;;;;;;0.20;0.20;;;;;;;14.83;66.01;100179.75;18434842;32;20374;-55
2022/10/01 22:34:18;;;;;;;0.32;0.32;;;;;;;15.35;65.07;100174.97;18434670;32;20103;-56
2022/10/01 22:44:23;;;;;;;0.30;0.30;;;;;;;15.56;65.04;100184.97;18434267;32;20106;-55
2022/10/01 22:54:36;;;;;;;0.37;0.37;;;;;;;15.30;65.91;100205.78;18433998;32;20433;-55
2022/10/01 23:04:48;;;;;;;0.30;0.30;;;;;;;15.15;66.68;100193.00;18432206;32;20224;-55
2022/10/01 23:15:04;;;;;;;0.30;0.30;;;;;;;15.26;66.32;100212.00;18434262;32;20081;-55
2022/10/01 23:25:16;;;;;;;0.30;0.30;;;;;;;14.84;67.67;100211.25;18432865;32;20191;-55
2022/10/01 23:35:21;;;;;;;0.80;0.80;;;;;;;14.79;68.38;100220.13;18433685;32;20110;-56
2022/10/01 23:45:28;;;;;;;0.73;0.73;;;;;;;14.95;67.45;100220.63;18432275;32;20178;-55
